Weather at Dachlandeplatz Heliport

Public forecast

Using degrees Celsius for public forecast. Weather courtesy of forecast.io.

Closest aviation weather report (METAR) to Dachlandeplatz Heliport

Report is more than 2 hours old.

Closest report is Hinterstoisser Air Base, 22.6 nm (41.9 km) N.

2024/05/29 23:50 (retrieved 3 hours ago)

LOXZ 292350Z VRB01KT 9999 FEW060 11/08 Q1012

Closest aviation forecast (TAF) to Dachlandeplatz Heliport

Forecast is more than 6 hours old.

Closest forecast is Bolzano Airport, 146.9 nm (272.0 km) W.

2024/05/29 18:35 (retrieved 8 hours ago)

TAF LIPB 292124Z 2918/3018 CNL